createdAt,value
2019-05-11T00:00:52.415Z,98344.88
2019-05-11T00:03:21.897Z,98329.13
2019-05-11T00:05:51.371Z,98329.58
2019-05-11T00:08:21.159Z,98330.09
2019-05-11T00:10:50.626Z,98316.16
2019-05-11T00:13:20.208Z,98311.44
2019-05-11T00:15:49.698Z,98314.62
2019-05-11T00:18:19.170Z,98313.22
2019-05-11T00:20:48.644Z,98317.21
2019-05-11T00:23:18.128Z,98302.55
2019-05-11T00:25:47.608Z,98290.52
2019-05-11T00:28:17.381Z,98275.86
2019-05-11T00:30:46.865Z,98274.09
2019-05-11T00:33:16.349Z,98273.55
2019-05-11T00:35:45.821Z,98251.80
2019-05-11T00:38:15.302Z,98246.23
2019-05-11T00:40:44.949Z,98260.68
2019-05-11T00:43:14.817Z,98258.30
2019-05-11T00:45:44.286Z,98261.02
2019-05-11T00:48:13.770Z,98264.70
2019-05-11T00:50:43.526Z,98252.64
2019-05-11T00:53:13.009Z,98246.78
2019-05-11T00:55:42.515Z,98245.98
2019-05-11T00:58:12.247Z,98238.09
2019-05-11T01:00:41.806Z,98229.19
2019-05-11T01:03:11.288Z,98223.64
2019-05-11T01:05:40.782Z,98219.30
2019-05-11T01:08:10.233Z,98213.09
2019-05-11T01:10:42.491Z,98203.02
2019-05-11T01:13:11.624Z,98198.01
2019-05-11T01:15:41.113Z,98199.23
2019-05-11T01:18:10.948Z,98197.38
2019-05-11T01:20:41.581Z,98195.90
2019-05-11T01:23:11.073Z,98184.05
2019-05-11T01:25:40.685Z,98180.16
2019-05-11T01:28:10.189Z,98187.86
2019-05-11T01:30:39.670Z,98180.01
2019-05-11T01:33:09.153Z,98182.62
2019-05-11T01:35:38.638Z,98181.13
2019-05-11T01:38:08.115Z,98175.03
2019-05-11T01:40:37.596Z,98177.41
2019-05-11T01:43:07.867Z,98169.84
2019-05-11T01:45:37.741Z,98154.07
2019-05-11T01:48:07.550Z,98165.53
2019-05-11T01:50:37.049Z,98153.89
2019-05-11T01:53:06.513Z,98158.70
2019-05-11T01:55:35.953Z,98163.36
2019-05-11T01:58:05.452Z,98161.88
2019-05-11T02:00:34.952Z,98160.58
2019-05-11T02:03:04.372Z,98159.81
2019-05-11T02:05:34.060Z,98165.19
2019-05-11T02:08:03.572Z,98169.98
2019-05-11T02:10:33.364Z,98186.39
2019-05-11T02:13:02.808Z,98172.34
2019-05-11T02:15:32.305Z,98171.08
2019-05-11T02:18:02.185Z,98171.00
2019-05-11T02:20:31.896Z,98164.77
2019-05-11T02:23:01.351Z,98171.89
2019-05-11T02:25:31.111Z,98164.21
2019-05-11T02:28:00.816Z,98162.07
2019-05-11T02:30:30.263Z,98172.73
2019-05-11T02:33:00.027Z,98169.75
2019-05-11T02:35:29.736Z,98170.34
2019-05-11T02:37:59.982Z,98159.27
2019-05-11T02:40:29.868Z,98144.68
2019-05-11T02:42:59.626Z,98131.89
2019-05-11T02:45:40.644Z,98111.98
2019-05-11T02:48:10.431Z,98109.17
2019-05-11T02:50:39.878Z,98112.33
2019-05-11T02:53:10.360Z,98120.88
2019-05-11T02:55:40.738Z,98122.81
2019-05-11T02:58:10.633Z,98117.45
2019-05-11T03:00:45.397Z,98118.01
2019-05-11T03:03:14.843Z,98115.48
2019-05-11T03:05:44.273Z,98109.77
2019-05-11T03:08:13.715Z,98110.55
2019-05-11T03:10:43.163Z,98113.41
2019-05-11T03:13:12.822Z,98117.48
2019-05-11T03:15:42.604Z,98112.92
2019-05-11T03:18:12.096Z,98108.83
2019-05-11T03:20:41.549Z,98112.12
2019-05-11T03:23:11.328Z,98112.40
2019-05-11T03:25:41.013Z,98107.98
2019-05-11T03:28:10.447Z,98096.98
2019-05-11T03:30:39.924Z,98089.20
2019-05-11T03:33:09.328Z,98089.09
2019-05-11T03:35:38.827Z,98090.67
2019-05-11T03:38:08.550Z,98091.69
2019-05-11T03:40:37.983Z,98084.88
2019-05-11T03:43:07.749Z,98087.06
2019-05-11T03:45:37.430Z,98082.25
2019-05-11T03:48:07.187Z,98088.98
2019-05-11T03:50:36.632Z,98092.73
2019-05-11T03:53:06.156Z,98099.67
2019-05-11T03:55:35.928Z,98099.22
2019-05-11T03:58:05.338Z,98095.47
2019-05-11T04:00:34.782Z,98101.04
2019-05-11T04:03:04.470Z,98104.44
2019-05-11T04:05:33.898Z,98103.28
2019-05-11T04:08:03.349Z,98093.09
2019-05-11T04:10:32.780Z,98084.25
2019-05-11T04:13:02.220Z,98087.41
2019-05-11T04:15:31.925Z,98092.84
2019-05-11T04:18:01.366Z,98090.14
2019-05-11T04:20:31.203Z,98086.11
2019-05-11T04:23:00.668Z,98085.17
2019-05-11T04:25:30.101Z,98091.09
2019-05-11T04:27:59.610Z,98083.52
2019-05-11T04:30:29.358Z,98081.66
2019-05-11T04:32:59.067Z,98078.23
2019-05-11T04:35:28.514Z,98083.77
2019-05-11T04:37:57.959Z,98087.59
2019-05-11T04:40:27.395Z,98086.50
2019-05-11T04:42:56.854Z,98084.64
2019-05-11T04:45:26.295Z,98090.28
2019-05-11T04:47:55.735Z,98093.51
2019-05-11T04:50:25.174Z,98089.44
2019-05-11T04:52:54.615Z,98084.67
2019-05-11T04:55:24.400Z,98085.23
2019-05-11T04:57:59.395Z,98088.08
2019-05-11T05:00:28.789Z,98086.22
2019-05-11T05:02:58.237Z,98090.48
2019-05-11T05:05:27.669Z,98097.53
2019-05-11T05:08:08.466Z,98103.64
2019-05-11T05:10:28.594Z,98098.83
2019-05-11T05:13:10.141Z,98091.36
2019-05-11T05:15:29.545Z,98097.81
2019-05-11T05:17:59.257Z,98090.20
2019-05-11T05:20:28.692Z,98079.80
2019-05-11T05:22:58.474Z,98089.46
2019-05-11T05:25:27.909Z,98089.14
2019-05-11T05:27:57.682Z,98101.50
2019-05-11T05:30:27.116Z,98111.39
2019-05-11T05:32:56.896Z,98114.25
2019-05-11T05:35:26.606Z,98106.32
2019-05-11T05:37:56.059Z,98117.60
2019-05-11T05:40:25.498Z,98111.27
2019-05-11T05:42:55.221Z,98114.55
2019-05-11T05:45:24.662Z,98113.80
2019-05-11T05:47:54.434Z,98114.83
2019-05-11T05:50:24.147Z,98100.77
2019-05-11T05:52:53.597Z,98101.59
2019-05-11T05:55:23.029Z,98099.92
2019-05-11T05:57:52.754Z,98099.54
2019-05-11T06:00:22.435Z,98104.94
2019-05-11T06:02:51.883Z,98112.95
2019-05-11T06:05:21.576Z,98108.19
2019-05-11T06:07:51.289Z,98114.11
2019-05-11T06:10:21.299Z,98115.75
2019-05-11T06:12:51.011Z,98117.01
2019-05-11T06:15:20.817Z,98126.27
2019-05-11T06:17:50.272Z,98119.95
2019-05-11T06:20:20.268Z,98119.53
2019-05-11T06:22:49.704Z,98118.55
2019-05-11T06:25:19.170Z,98113.61
2019-05-11T06:27:48.908Z,98122.98
2019-05-11T06:30:18.877Z,98119.66
2019-05-11T06:32:48.581Z,98124.28
2019-05-11T06:35:18.394Z,98115.67
2019-05-11T06:37:47.828Z,98121.68
2019-05-11T06:40:18.016Z,98117.59
2019-05-11T06:42:47.520Z,98120.56
2019-05-11T06:45:17.473Z,98124.08
2019-05-11T06:47:46.934Z,98124.80
2019-05-11T06:50:16.879Z,98120.69
2019-05-11T06:52:46.313Z,98125.49
2019-05-11T06:55:16.070Z,98115.11
2019-05-11T06:57:46.592Z,98125.09
2019-05-11T07:00:16.613Z,98120.98
2019-05-11T07:02:46.289Z,98120.66
2019-05-11T07:05:15.742Z,98123.56
2019-05-11T07:07:47.795Z,98117.87
2019-05-11T07:10:16.983Z,98116.61
2019-05-11T07:12:46.907Z,98124.80
2019-05-11T07:15:16.375Z,98125.16
2019-05-11T07:17:46.110Z,98125.28
2019-05-11T07:20:15.623Z,98122.56
2019-05-11T07:22:45.059Z,98129.31
2019-05-11T07:25:14.574Z,98129.07
2019-05-11T07:27:44.012Z,98123.02
2019-05-11T07:30:14.354Z,98135.47
2019-05-11T07:32:43.785Z,98118.98
2019-05-11T07:35:13.368Z,98114.23
2019-05-11T07:37:43.069Z,98110.44
2019-05-11T07:40:12.658Z,98120.73
2019-05-11T07:42:42.386Z,98113.75
2019-05-11T07:45:12.204Z,98117.86
2019-05-11T07:47:41.642Z,98107.47
2019-05-11T07:50:11.869Z,98109.63
2019-05-11T07:52:41.626Z,98126.58
2019-05-11T07:55:11.542Z,98121.31
2019-05-11T07:57:41.252Z,98122.23
2019-05-11T08:00:11.492Z,98118.31
2019-05-11T08:02:40.926Z,98113.17
2019-05-11T08:05:11.979Z,98116.43
2019-05-11T08:07:41.417Z,98118.34
2019-05-11T08:10:11.637Z,98114.66
2019-05-11T08:12:41.346Z,98119.95
2019-05-11T08:15:13.673Z,98124.92
2019-05-11T08:17:42.298Z,98124.01
2019-05-11T08:20:12.214Z,98126.18
2019-05-11T08:22:41.651Z,98119.20
2019-05-11T08:25:11.166Z,98128.32
2019-05-11T08:27:40.939Z,98129.12
2019-05-11T08:30:14.001Z,98127.35
2019-05-11T08:32:43.739Z,98135.06
2019-05-11T08:35:13.652Z,98123.88
2019-05-11T08:37:43.083Z,98124.11
2019-05-11T08:40:13.476Z,98112.48
2019-05-11T08:42:42.911Z,98130.08
2019-05-11T08:45:20.348Z,98119.30
2019-05-11T08:47:44.034Z,98115.45
2019-05-11T08:50:15.554Z,98117.72
2019-05-11T08:52:47.713Z,98123.31
2019-05-11T08:55:18.970Z,98128.64
2019-05-11T08:57:48.126Z,98124.99
2019-05-11T09:00:18.420Z,98128.08
2019-05-11T09:02:50.726Z,98139.23
2019-05-11T09:05:19.026Z,98137.02
2019-05-11T09:07:48.622Z,98140.55
2019-05-11T09:10:18.826Z,98149.13
2019-05-11T09:12:48.959Z,98176.16
2019-05-11T09:15:32.471Z,98174.66
2019-05-11T09:17:50.535Z,98172.41
2019-05-11T09:20:20.044Z,98173.42
2019-05-11T09:22:49.795Z,98171.09
2019-05-11T09:25:19.241Z,98177.50
2019-05-11T09:27:49.006Z,98182.38
2019-05-11T09:30:19.124Z,98180.94
2019-05-11T09:32:48.834Z,98190.39
2019-05-11T09:35:19.063Z,98184.61
2019-05-11T09:37:48.765Z,98181.56
2019-05-11T09:40:18.576Z,98186.32
2019-05-11T09:42:48.785Z,98179.19
2019-05-11T09:45:18.813Z,98192.28
2019-05-11T09:47:48.343Z,98190.38
2019-05-11T09:50:19.666Z,98195.99
2019-05-11T09:52:49.376Z,98204.45
2019-05-11T09:55:19.325Z,98198.59
2019-05-11T09:57:49.000Z,98192.04
2019-05-11T10:00:18.767Z,98188.90
2019-05-11T10:02:48.926Z,98187.30
2019-05-11T10:05:19.125Z,98190.89
2019-05-11T10:07:48.788Z,98180.79
2019-05-11T10:10:19.022Z,98175.58
2019-05-11T10:12:52.522Z,98181.34
2019-05-11T10:15:19.959Z,98194.37
2019-05-11T10:17:49.407Z,98173.69
2019-05-11T10:20:19.139Z,98165.74
2019-05-11T10:22:48.902Z,98163.21
2019-05-11T10:25:18.474Z,98168.30
2019-05-11T10:27:49.070Z,98183.22
2019-05-11T10:30:19.075Z,98168.77
2019-05-11T10:32:48.891Z,98162.70
2019-05-11T10:35:18.622Z,98184.25
2019-05-11T10:37:48.046Z,98177.05
2019-05-11T10:40:18.963Z,98181.49
2019-05-11T10:42:48.658Z,98182.53
2019-05-11T10:45:18.235Z,98198.78
2019-05-11T10:47:49.014Z,98183.06
2019-05-11T10:50:18.994Z,98191.52
2019-05-11T10:52:48.721Z,98181.05
2019-05-11T10:55:19.309Z,98184.38
2019-05-11T10:57:49.492Z,98182.23
2019-05-11T11:00:21.540Z,98193.63
2019-05-11T11:02:51.000Z,98190.13
2019-05-11T11:05:20.420Z,98187.81
2019-05-11T11:07:49.884Z,98181.44
2019-05-11T11:10:19.459Z,98181.63
2019-05-11T11:12:49.260Z,98177.33
2019-05-11T11:15:19.294Z,98186.11
2019-05-11T11:17:48.814Z,98170.54
2019-05-11T11:20:18.845Z,98181.85
2019-05-11T11:22:48.625Z,98184.66
2019-05-11T11:25:18.206Z,98192.52
2019-05-11T11:27:48.742Z,98189.20
2019-05-11T11:30:20.045Z,98190.09
2019-05-11T11:32:49.491Z,98188.73
2019-05-11T11:35:19.266Z,98183.92
2019-05-11T11:37:49.034Z,98187.98
2019-05-11T11:40:18.714Z,98184.22
2019-05-11T11:42:48.400Z,98183.11
2019-05-11T11:45:18.426Z,98181.03
2019-05-11T11:47:49.400Z,98182.74
2019-05-11T11:50:19.402Z,98184.34
2019-05-11T11:52:49.128Z,98193.94
2019-05-11T11:55:18.935Z,98191.62
2019-05-11T11:57:50.399Z,98207.03
2019-05-11T12:00:20.630Z,98197.53
2019-05-11T12:02:50.535Z,98195.32
2019-05-11T12:05:19.960Z,98208.61
2019-05-11T12:07:49.409Z,98195.79
2019-05-11T12:10:20.255Z,98207.22
2019-05-11T12:12:49.751Z,98219.03
2019-05-11T12:15:19.580Z,98203.77
2019-05-11T12:17:49.019Z,98192.48
2019-05-11T12:20:18.804Z,98193.84
2019-05-11T12:22:48.238Z,98191.14
2019-05-11T12:25:18.554Z,98191.84
2019-05-11T12:27:49.212Z,98185.42
2019-05-11T12:30:19.372Z,98202.44
2019-05-11T12:32:50.318Z,98202.02
2019-05-11T12:35:20.475Z,98217.48
2019-05-11T12:37:49.910Z,98200.63
2019-05-11T12:40:19.970Z,98198.20
2019-05-11T12:42:49.403Z,98197.69
2019-05-11T12:45:19.472Z,98193.44
2019-05-11T12:47:49.050Z,98192.76
2019-05-11T12:50:18.934Z,98176.09
2019-05-11T12:52:48.482Z,98165.87
2019-05-11T12:55:18.409Z,98163.25
2019-05-11T12:57:48.204Z,98158.05
2019-05-11T13:00:18.398Z,98159.86
2019-05-11T13:02:48.483Z,98158.56
2019-05-11T13:05:18.407Z,98163.83
2019-05-11T13:07:48.306Z,98160.75
2019-05-11T13:10:18.739Z,98165.81
2019-05-11T13:12:49.302Z,98179.27
2019-05-11T13:15:20.894Z,98181.50
2019-05-11T13:17:50.602Z,98177.16
2019-05-11T13:20:20.046Z,98182.08
2019-05-11T13:22:49.485Z,98184.08
2019-05-11T13:25:18.932Z,98181.47
2019-05-11T13:27:49.295Z,98184.42
2019-05-11T13:30:19.252Z,98184.03
2019-05-11T13:32:49.171Z,98177.91
2019-05-11T13:35:18.746Z,98179.87
2019-05-11T13:37:48.249Z,98178.22
2019-05-11T13:40:18.478Z,98181.75
2019-05-11T13:42:49.058Z,98184.77
2019-05-11T13:45:18.774Z,98204.70
2019-05-11T13:47:55.252Z,98232.77
2019-05-11T13:50:19.697Z,98304.47
2019-05-11T13:52:49.378Z,98294.27
2019-05-11T13:55:18.823Z,98299.69
2019-05-11T13:57:48.813Z,98320.92
2019-05-11T14:00:18.775Z,98342.47
2019-05-11T14:02:48.735Z,98314.47
2019-05-11T14:05:18.559Z,98321.34
2019-05-11T14:07:48.467Z,98314.88
2019-05-11T14:10:18.377Z,98308.20
2019-05-11T14:12:48.019Z,98309.97
2019-05-11T14:15:18.856Z,98298.50
2019-05-11T14:17:57.523Z,98305.58
2019-05-11T14:20:20.428Z,98300.00
2019-05-11T14:22:49.870Z,98295.63
2019-05-11T14:25:19.621Z,98298.98
2019-05-11T14:27:49.204Z,98303.25
2019-05-11T14:30:19.366Z,98315.47
2019-05-11T14:32:48.854Z,98333.09
2019-05-11T14:35:18.950Z,98325.51
2019-05-11T14:37:48.944Z,98314.24
2019-05-11T14:40:18.495Z,98323.27
2019-05-11T14:42:49.035Z,98326.94
2019-05-11T14:45:19.109Z,98351.38
2019-05-11T14:47:48.698Z,98360.63
2019-05-11T14:50:18.978Z,98381.72
2019-05-11T14:52:49.056Z,98378.28
2019-05-11T14:55:18.738Z,98396.07
2019-05-11T14:57:48.778Z,98371.77
2019-05-11T15:00:19.020Z,98373.67
2019-05-11T15:02:49.847Z,98369.64
2019-05-11T15:05:21.762Z,98374.47
2019-05-11T15:07:52.860Z,98385.14
2019-05-11T15:10:22.684Z,98389.75
2019-05-11T15:12:52.128Z,98388.50
2019-05-11T15:15:21.714Z,98394.73
2019-05-11T15:17:51.522Z,98401.92
2019-05-11T15:20:21.785Z,98408.53
2019-05-11T15:22:51.216Z,98436.89
2019-05-11T15:25:20.924Z,98459.41
2019-05-11T15:27:50.441Z,98474.84
2019-05-11T15:30:20.702Z,98470.70
2019-05-11T15:32:50.456Z,98482.16
2019-05-11T15:35:19.962Z,98487.59
2019-05-11T15:37:49.902Z,98492.06
2019-05-11T15:40:22.205Z,98490.19
2019-05-11T15:42:51.956Z,98484.52
2019-05-11T15:45:21.977Z,98494.09
2019-05-11T15:47:51.428Z,98505.33
2019-05-11T15:50:22.030Z,98520.79
2019-05-11T15:52:51.477Z,98525.84
2019-05-11T15:55:22.449Z,98528.92
2019-05-11T15:57:52.158Z,98529.09
2019-05-11T16:00:23.339Z,98519.42
2019-05-11T16:02:53.021Z,98521.25
2019-05-11T16:05:22.464Z,98519.38
2019-05-11T16:07:51.914Z,98522.05
2019-05-11T16:10:21.349Z,98518.08
2019-05-11T16:12:50.790Z,98523.50
2019-05-11T16:15:20.399Z,98526.31
2019-05-11T16:17:50.477Z,98529.48
2019-05-11T16:20:20.569Z,98531.39
2019-05-11T16:22:50.016Z,98535.58
2019-05-11T16:25:20.227Z,98542.19
2019-05-11T16:27:49.723Z,98547.39
2019-05-11T16:30:21.541Z,98558.39
2019-05-11T16:32:51.396Z,98555.23
2019-05-11T16:35:20.906Z,98551.61
2019-05-11T16:37:50.688Z,98547.42
2019-05-11T16:40:21.253Z,98554.98
2019-05-11T16:42:50.883Z,98561.20
2019-05-11T16:45:23.875Z,98564.38
2019-05-11T16:47:51.884Z,98552.56
2019-05-11T16:50:21.584Z,98567.42
2019-05-11T16:52:51.287Z,98576.36
2019-05-11T16:55:20.721Z,98589.95
2019-05-11T16:57:50.415Z,98603.14
2019-05-11T17:00:19.994Z,98607.05
2019-05-11T17:02:49.485Z,98608.78
2019-05-11T17:05:26.476Z,98619.00
2019-05-11T17:07:50.465Z,98624.20
2019-05-11T17:10:19.897Z,98627.91
2019-05-11T17:12:49.686Z,98646.09
2019-05-11T17:15:19.439Z,98647.84
2019-05-11T17:17:49.400Z,98645.98
2019-05-11T17:20:19.343Z,98656.08
2019-05-11T17:22:49.460Z,98646.78
2019-05-11T17:25:19.895Z,98652.89
2019-05-11T17:27:49.546Z,98670.04
2019-05-11T17:30:20.071Z,98682.90
2019-05-11T17:32:50.013Z,98696.81
2019-05-11T17:35:19.743Z,98710.51
2019-05-11T17:37:49.207Z,98713.47
2019-05-11T17:40:23.188Z,98734.22
2019-05-11T17:42:53.500Z,98740.13
2019-05-11T17:45:21.653Z,98749.66
2019-05-11T17:47:51.096Z,98751.23
2019-05-11T17:50:20.609Z,98750.78
2019-05-11T17:52:50.061Z,98755.97
2019-05-11T17:55:19.525Z,98761.88
2019-05-11T17:57:51.592Z,98775.97
2019-05-11T18:00:20.759Z,98784.50
2019-05-11T18:02:50.283Z,98790.55
2019-05-11T18:05:20.143Z,98789.97
2019-05-11T18:07:49.580Z,98795.61
2019-05-11T18:10:19.264Z,98803.74
2019-05-11T18:12:48.978Z,98808.66
2019-05-11T18:15:19.310Z,98803.20
2019-05-11T18:17:49.101Z,98822.22
2019-05-11T18:20:21.627Z,98818.22
2019-05-11T18:22:50.967Z,98822.11
2019-05-11T18:25:20.818Z,98832.69
2019-05-11T18:27:50.569Z,98835.41
2019-05-11T18:30:20.089Z,98843.54
2019-05-11T18:32:49.574Z,98852.05
2019-05-11T18:35:19.892Z,98853.16
2019-05-11T18:37:49.417Z,98859.27
2019-05-11T18:40:19.172Z,98873.34
2019-05-11T18:42:49.040Z,98867.84
2019-05-11T18:45:19.445Z,98892.28
2019-05-11T18:47:49.507Z,98888.16
2019-05-11T18:50:30.495Z,98901.73
2019-05-11T18:52:51.554Z,98904.93
2019-05-11T18:55:21.250Z,98907.16
2019-05-11T18:57:50.684Z,98919.43
2019-05-11T19:00:21.099Z,98921.17
2019-05-11T19:02:50.824Z,98923.16
2019-05-11T19:05:20.613Z,98939.08
2019-05-11T19:07:50.318Z,98941.55
2019-05-11T19:10:19.765Z,98949.98
2019-05-11T19:12:49.453Z,98954.42
2019-05-11T19:15:19.396Z,98965.00
2019-05-11T19:17:49.467Z,98974.84
2019-05-11T19:20:19.158Z,98971.95
2019-05-11T19:22:48.847Z,98980.54
2019-05-11T19:25:18.642Z,98981.83
2019-05-11T19:27:50.732Z,98992.44
2019-05-11T19:30:19.847Z,98995.87
2019-05-11T19:32:49.306Z,99005.16
2019-05-11T19:35:21.296Z,99013.16
2019-05-11T19:37:49.905Z,99026.23
2019-05-11T19:40:19.359Z,99035.98
2019-05-11T19:42:54.118Z,99037.59
2019-05-11T19:45:24.302Z,99039.69
2019-05-11T19:47:54.196Z,99040.80
2019-05-11T19:50:23.646Z,99039.33
2019-05-11T19:52:53.083Z,99053.97
2019-05-11T19:55:22.687Z,99051.53
2019-05-11T19:57:52.103Z,99069.88
2019-05-11T20:00:22.711Z,99042.88
2019-05-11T20:02:52.418Z,99077.16
2019-05-11T20:05:22.120Z,99085.78
2019-05-11T20:07:51.608Z,99091.00
2019-05-11T20:10:21.057Z,99101.77
2019-05-11T20:12:50.846Z,99107.60
2019-05-11T20:15:20.554Z,99121.20
2019-05-11T20:17:49.993Z,99137.84
2019-05-11T20:20:19.771Z,99134.29
2019-05-11T20:22:49.584Z,99134.83
2019-05-11T20:25:19.426Z,99142.96
2019-05-11T20:27:49.246Z,99147.42
2019-05-11T20:30:19.464Z,99160.23
2019-05-11T20:32:49.628Z,99146.78
2019-05-11T20:35:19.138Z,99161.08
2019-05-11T20:37:48.661Z,99158.80
2019-05-11T20:40:18.595Z,99164.19
2019-05-11T20:42:48.632Z,99161.46
2019-05-11T20:45:18.975Z,99160.09
2019-05-11T20:47:49.035Z,99161.59
2019-05-11T20:50:19.249Z,99166.71
2019-05-11T20:52:49.229Z,99161.98
2019-05-11T20:55:18.945Z,99180.43
2019-05-11T20:57:50.675Z,99175.63
2019-05-11T21:00:23.887Z,99179.38
2019-05-11T21:02:53.629Z,99179.98
2019-05-11T21:05:23.135Z,99193.16
2019-05-11T21:07:53.047Z,99195.54
2019-05-11T21:10:23.206Z,99205.60
2019-05-11T21:12:53.015Z,99212.28
2019-05-11T21:15:22.685Z,99202.92
2019-05-11T21:17:54.957Z,99208.61
2019-05-11T21:20:24.370Z,99212.29
2019-05-11T21:22:54.047Z,99215.37
2019-05-11T21:25:23.632Z,99222.31
2019-05-11T21:27:53.385Z,99232.86
2019-05-11T21:30:23.288Z,99241.97
2019-05-11T21:32:52.736Z,99239.89
2019-05-11T21:35:22.186Z,99250.23
2019-05-11T21:37:51.628Z,99253.95
2019-05-11T21:40:21.413Z,99261.78
2019-05-11T21:42:50.856Z,99267.96
2019-05-11T21:45:20.287Z,99280.61
2019-05-11T21:47:49.728Z,99281.84
2019-05-11T21:50:19.447Z,99290.45
2019-05-11T21:52:49.248Z,99287.48
2019-05-11T21:55:18.950Z,99298.39
2019-05-11T21:57:49.827Z,99303.00
2019-05-11T22:00:20.487Z,99302.59
2019-05-11T22:02:50.334Z,99311.95
2019-05-11T22:05:20.914Z,99313.81
2019-05-11T22:07:50.889Z,99324.41
2019-05-11T22:10:20.707Z,99326.98
2019-05-11T22:12:50.155Z,99330.83
2019-05-11T22:15:19.901Z,99333.77
2019-05-11T22:17:49.608Z,99340.83
2019-05-11T22:20:19.320Z,99343.88
2019-05-11T22:22:48.760Z,99345.71
2019-05-11T22:25:18.534Z,99345.33
2019-05-11T22:27:48.934Z,99356.17
2019-05-11T22:30:18.882Z,99359.83
2019-05-11T22:32:48.337Z,99362.97
2019-05-11T22:35:18.481Z,99367.52
2019-05-11T22:37:48.981Z,99376.80
2019-05-11T22:40:19.041Z,99378.95
2019-05-11T22:42:48.544Z,99380.80
2019-05-11T22:45:18.798Z,99389.00
2019-05-11T22:47:48.689Z,99392.63
2019-05-11T22:50:18.842Z,99395.13
2019-05-11T22:52:48.914Z,99399.71
2019-05-11T22:55:19.063Z,99397.74
2019-05-11T22:57:48.965Z,99404.77
2019-05-11T23:00:23.337Z,99393.13
2019-05-11T23:02:53.079Z,99406.84
2019-05-11T23:05:22.751Z,99403.47
2019-05-11T23:07:52.189Z,99402.53
2019-05-11T23:10:21.626Z,99408.14
2019-05-11T23:12:51.066Z,99413.80
2019-05-11T23:15:20.500Z,99412.75
2019-05-11T23:17:49.943Z,99417.80
2019-05-11T23:20:19.639Z,99416.51
2019-05-11T23:22:57.604Z,99416.92
2019-05-11T23:25:21.069Z,99430.95
2019-05-11T23:27:50.786Z,99426.28
2019-05-11T23:30:21.098Z,99430.89
2019-05-11T23:32:50.976Z,99430.59
2019-05-11T23:35:20.726Z,99425.09
2019-05-11T23:37:50.248Z,99430.34
2019-05-11T23:40:22.191Z,99432.11
2019-05-11T23:42:51.635Z,99434.80
2019-05-11T23:45:21.193Z,99435.63
2019-05-11T23:47:50.913Z,99440.00
2019-05-11T23:50:20.934Z,99435.52
2019-05-11T23:53:05.451Z,99442.50
2019-05-11T23:55:21.791Z,99443.11
2019-05-11T23:57:51.593Z,99443.07
